sensor_id;sensor_type;location;lat;lon;timestamp;temperature;humidity
28959;DHT22;16066;0.000;0.000;2022-12-22T00:02:28;20.20;44.70
28959;DHT22;16066;0.000;0.000;2022-12-22T00:05:20;20.20;44.80
28959;DHT22;16066;0.000;0.000;2022-12-22T00:08:05;20.20;44.70
28959;DHT22;16066;0.000;0.000;2022-12-22T00:10:50;20.20;44.70
28959;DHT22;16066;0.000;0.000;2022-12-22T00:13:35;20.20;44.90
28959;DHT22;16066;0.000;0.000;2022-12-22T00:16:19;20.20;44.90
28959;DHT22;16066;0.000;0.000;2022-12-22T00:19:10;20.10;44.70
28959;DHT22;16066;0.000;0.000;2022-12-22T00:21:59;20.10;44.60
28959;DHT22;16066;0.000;0.000;2022-12-22T00:24:44;20.10;44.70
28959;DHT22;16066;0.000;0.000;2022-12-22T00:27:30;20.00;44.70
28959;DHT22;16066;0.000;0.000;2022-12-22T00:30:15;20.00;44.70
28959;DHT22;16066;0.000;0.000;2022-12-22T00:33:00;19.90;44.70
28959;DHT22;16066;0.000;0.000;2022-12-22T00:35:46;19.90;44.80
28959;DHT22;16066;0.000;0.000;2022-12-22T00:38:30;19.90;44.90
28959;DHT22;16066;0.000;0.000;2022-12-22T00:41:14;19.80;44.80
28959;DHT22;16066;0.000;0.000;2022-12-22T00:43:58;19.80;44.90
28959;DHT22;16066;0.000;0.000;2022-12-22T00:46:43;19.70;44.90
28959;DHT22;16066;0.000;0.000;2022-12-22T00:49:28;19.70;45.00
28959;DHT22;16066;0.000;0.000;2022-12-22T00:52:13;19.70;45.00
28959;DHT22;16066;0.000;0.000;2022-12-22T00:54:58;19.60;45.00
28959;DHT22;16066;0.000;0.000;2022-12-22T00:57:42;19.60;45.10
28959;DHT22;16066;0.000;0.000;2022-12-22T01:00:27;19.60;45.20
28959;DHT22;16066;0.000;0.000;2022-12-22T01:03:12;19.60;45.20
28959;DHT22;16066;0.000;0.000;2022-12-22T01:05:58;19.50;45.20
28959;DHT22;16066;0.000;0.000;2022-12-22T01:08:44;19.50;45.20
28959;DHT22;16066;0.000;0.000;2022-12-22T01:11:28;19.50;45.20
28959;DHT22;16066;0.000;0.000;2022-12-22T01:14:14;19.40;45.20
28959;DHT22;16066;0.000;0.000;2022-12-22T01:16:59;19.40;45.30
28959;DHT22;16066;0.000;0.000;2022-12-22T01:19:45;19.40;45.30
28959;DHT22;16066;0.000;0.000;2022-12-22T01:22:30;19.40;45.40
28959;DHT22;16066;0.000;0.000;2022-12-22T01:25:16;19.40;45.40
28959;DHT22;16066;0.000;0.000;2022-12-22T01:28:01;19.30;45.30
28959;DHT22;16066;0.000;0.000;2022-12-22T01:30:46;19.30;45.40
28959;DHT22;16066;0.000;0.000;2022-12-22T01:33:30;19.30;45.40
28959;DHT22;16066;0.000;0.000;2022-12-22T01:36:15;19.30;45.40
28959;DHT22;16066;0.000;0.000;2022-12-22T01:38:59;19.20;45.40
28959;DHT22;16066;0.000;0.000;2022-12-22T01:41:45;19.20;45.40
28959;DHT22;16066;0.000;0.000;2022-12-22T01:44:29;19.20;45.50
28959;DHT22;16066;0.000;0.000;2022-12-22T01:47:30;19.20;45.50
28959;DHT22;16066;0.000;0.000;2022-12-22T01:50:18;19.20;45.50
28959;DHT22;16066;0.000;0.000;2022-12-22T01:53:07;19.20;45.50
28959;DHT22;16066;0.000;0.000;2022-12-22T01:55:53;19.20;45.50
28959;DHT22;16066;0.000;0.000;2022-12-22T01:58:41;19.10;45.50
28959;DHT22;16066;0.000;0.000;2022-12-22T02:01:27;19.10;45.50
28959;DHT22;16066;0.000;0.000;2022-12-22T02:04:12;19.10;45.60
28959;DHT22;16066;0.000;0.000;2022-12-22T02:07:03;19.10;45.60
28959;DHT22;16066;0.000;0.000;2022-12-22T02:10:00;19.10;45.60
28959;DHT22;16066;0.000;0.000;2022-12-22T02:13:06;19.10;45.70
28959;DHT22;16066;0.000;0.000;2022-12-22T02:16:14;19.10;45.70
28959;DHT22;16066;0.000;0.000;2022-12-22T02:19:34;19.10;45.70
28959;DHT22;16066;0.000;0.000;2022-12-22T02:22:31;19.00;45.70
28959;DHT22;16066;0.000;0.000;2022-12-22T02:25:26;19.00;45.70
28959;DHT22;16066;0.000;0.000;2022-12-22T02:28:11;19.00;45.80
28959;DHT22;16066;0.000;0.000;2022-12-22T02:30:56;19.00;45.80
28959;DHT22;16066;0.000;0.000;2022-12-22T02:33:40;19.00;45.80
28959;DHT22;16066;0.000;0.000;2022-12-22T02:36:59;19.00;45.90
28959;DHT22;16066;0.000;0.000;2022-12-22T02:40:17;19.00;45.90
28959;DHT22;16066;0.000;0.000;2022-12-22T02:43:19;19.00;46.00
28959;DHT22;16066;0.000;0.000;2022-12-22T02:46:32;19.00;46.00
28959;DHT22;16066;0.000;0.000;2022-12-22T02:49:23;19.00;46.00
28959;DHT22;16066;0.000;0.000;2022-12-22T02:52:22;19.00;46.00
28959;DHT22;16066;0.000;0.000;2022-12-22T02:55:08;18.90;45.90
28959;DHT22;16066;0.000;0.000;2022-12-22T02:57:53;18.90;45.90
28959;DHT22;16066;0.000;0.000;2022-12-22T03:00:38;18.90;46.00
28959;DHT22;16066;0.000;0.000;2022-12-22T03:03:23;18.90;46.00
28959;DHT22;16066;0.000;0.000;2022-12-22T03:06:07;18.90;45.90
28959;DHT22;16066;0.000;0.000;2022-12-22T03:08:51;18.90;46.00
28959;DHT22;16066;0.000;0.000;2022-12-22T03:11:35;18.90;45.90
28959;DHT22;16066;0.000;0.000;2022-12-22T03:14:19;18.90;46.00
28959;DHT22;16066;0.000;0.000;2022-12-22T03:17:03;18.90;46.00
28959;DHT22;16066;0.000;0.000;2022-12-22T03:19:47;18.90;46.00
28959;DHT22;16066;0.000;0.000;2022-12-22T03:22:31;18.90;45.90
28959;DHT22;16066;0.000;0.000;2022-12-22T03:25:15;18.80;46.00
28959;DHT22;16066;0.000;0.000;2022-12-22T03:28:04;18.90;46.00
28959;DHT22;16066;0.000;0.000;2022-12-22T03:30:31;18.90;46.00
28959;DHT22;16066;0.000;0.000;2022-12-22T03:32:57;18.90;46.00
28959;DHT22;16066;0.000;0.000;2022-12-22T03:35:23;18.90;46.10
28959;DHT22;16066;0.000;0.000;2022-12-22T03:37:49;18.80;46.00
28959;DHT22;16066;0.000;0.000;2022-12-22T03:40:14;18.90;46.10
28959;DHT22;16066;0.000;0.000;2022-12-22T03:42:40;18.80;46.00
28959;DHT22;16066;0.000;0.000;2022-12-22T03:45:24;18.90;46.00
28959;DHT22;16066;0.000;0.000;2022-12-22T03:48:08;18.80;46.00
28959;DHT22;16066;0.000;0.000;2022-12-22T03:50:34;18.80;46.00
28959;DHT22;16066;0.000;0.000;2022-12-22T03:52:59;18.80;46.00
28959;DHT22;16066;0.000;0.000;2022-12-22T03:55:25;18.80;46.10
28959;DHT22;16066;0.000;0.000;2022-12-22T03:57:50;18.80;46.00
28959;DHT22;16066;0.000;0.000;2022-12-22T04:00:16;18.80;46.00
28959;DHT22;16066;0.000;0.000;2022-12-22T04:02:42;18.80;46.00
28959;DHT22;16066;0.000;0.000;2022-12-22T04:05:08;18.80;46.00
28959;DHT22;16066;0.000;0.000;2022-12-22T04:07:33;18.80;46.00
28959;DHT22;16066;0.000;0.000;2022-12-22T04:09:59;18.80;46.10
28959;DHT22;16066;0.000;0.000;2022-12-22T04:12:43;18.80;46.10
28959;DHT22;16066;0.000;0.000;2022-12-22T04:15:22;18.80;46.10
28959;DHT22;16066;0.000;0.000;2022-12-22T04:17:48;18.80;46.10
28959;DHT22;16066;0.000;0.000;2022-12-22T04:20:14;18.80;46.10
28959;DHT22;16066;0.000;0.000;2022-12-22T04:22:40;18.80;46.20
28959;DHT22;16066;0.000;0.000;2022-12-22T04:25:06;18.80;46.10
28959;DHT22;16066;0.000;0.000;2022-12-22T04:27:31;18.80;46.10
28959;DHT22;16066;0.000;0.000;2022-12-22T04:29:57;18.80;46.20
28959;DHT22;16066;0.000;0.000;2022-12-22T04:32:22;18.80;46.20
28959;DHT22;16066;0.000;0.000;2022-12-22T04:34:48;18.70;46.10
28959;DHT22;16066;0.000;0.000;2022-12-22T04:37:13;18.80;46.20
28959;DHT22;16066;0.000;0.000;2022-12-22T04:39:39;18.70;46.10
28959;DHT22;16066;0.000;0.000;2022-12-22T04:42:04;18.70;46.00
28959;DHT22;16066;0.000;0.000;2022-12-22T04:44:30;18.70;46.10
28959;DHT22;16066;0.000;0.000;2022-12-22T04:46:55;18.70;46.20
28959;DHT22;16066;0.000;0.000;2022-12-22T04:49:21;18.70;46.20
28959;DHT22;16066;0.000;0.000;2022-12-22T04:51:46;18.70;46.20
28959;DHT22;16066;0.000;0.000;2022-12-22T04:54:12;18.70;46.20
28959;DHT22;16066;0.000;0.000;2022-12-22T04:56:37;18.70;46.20
28959;DHT22;16066;0.000;0.000;2022-12-22T04:59:03;18.70;46.20
28959;DHT22;16066;0.000;0.000;2022-12-22T05:01:28;18.70;46.20
28959;DHT22;16066;0.000;0.000;2022-12-22T05:03:54;18.70;46.90
28959;DHT22;16066;0.000;0.000;2022-12-22T05:06:19;18.70;46.30
28959;DHT22;16066;0.000;0.000;2022-12-22T05:08:45;18.70;46.30
28959;DHT22;16066;0.000;0.000;2022-12-22T05:11:10;18.70;46.30
28959;DHT22;16066;0.000;0.000;2022-12-22T05:13:36;18.70;46.40
28959;DHT22;16066;0.000;0.000;2022-12-22T05:18:29;18.70;46.50
28959;DHT22;16066;0.000;0.000;2022-12-22T05:20:55;18.70;46.40
28959;DHT22;16066;0.000;0.000;2022-12-22T05:23:20;18.70;46.40
28959;DHT22;16066;0.000;0.000;2022-12-22T05:25:45;18.70;46.40
28959;DHT22;16066;0.000;0.000;2022-12-22T05:28:11;18.70;46.40
28959;DHT22;16066;0.000;0.000;2022-12-22T05:30:36;18.70;46.40
28959;DHT22;16066;0.000;0.000;2022-12-22T05:33:04;18.70;46.40
28959;DHT22;16066;0.000;0.000;2022-12-22T05:35:30;18.70;46.50
28959;DHT22;16066;0.000;0.000;2022-12-22T05:37:55;18.70;46.50
28959;DHT22;16066;0.000;0.000;2022-12-22T05:40:21;18.60;46.40
28959;DHT22;16066;0.000;0.000;2022-12-22T05:42:46;18.70;46.50
28959;DHT22;16066;0.000;0.000;2022-12-22T05:45:14;18.70;46.50
28959;DHT22;16066;0.000;0.000;2022-12-22T05:47:48;18.70;46.50
28959;DHT22;16066;0.000;0.000;2022-12-22T05:50:16;18.70;46.50
28959;DHT22;16066;0.000;0.000;2022-12-22T05:52:42;18.70;46.50
28959;DHT22;16066;0.000;0.000;2022-12-22T05:55:09;18.70;46.50
28959;DHT22;16066;0.000;0.000;2022-12-22T05:57:34;18.70;46.50
28959;DHT22;16066;0.000;0.000;2022-12-22T06:00:00;18.60;46.40
28959;DHT22;16066;0.000;0.000;2022-12-22T06:02:26;18.60;46.40
28959;DHT22;16066;0.000;0.000;2022-12-22T06:04:51;18.60;46.30
28959;DHT22;16066;0.000;0.000;2022-12-22T06:07:17;18.60;46.40
28959;DHT22;16066;0.000;0.000;2022-12-22T06:09:42;18.60;46.40
28959;DHT22;16066;0.000;0.000;2022-12-22T06:12:08;18.60;46.40
28959;DHT22;16066;0.000;0.000;2022-12-22T06:14:34;18.60;46.40
28959;DHT22;16066;0.000;0.000;2022-12-22T06:16:59;18.60;46.40
28959;DHT22;16066;0.000;0.000;2022-12-22T06:19:25;18.60;46.40
28959;DHT22;16066;0.000;0.000;2022-12-22T06:21:50;18.60;46.40
28959;DHT22;16066;0.000;0.000;2022-12-22T06:24:16;18.60;46.40
28959;DHT22;16066;0.000;0.000;2022-12-22T06:26:41;18.60;46.40
28959;DHT22;16066;0.000;0.000;2022-12-22T06:29:07;18.60;46.40
28959;DHT22;16066;0.000;0.000;2022-12-22T06:31:33;18.60;46.40
28959;DHT22;16066;0.000;0.000;2022-12-22T06:33:58;18.60;46.30
28959;DHT22;16066;0.000;0.000;2022-12-22T06:36:24;18.60;46.40
28959;DHT22;16066;0.000;0.000;2022-12-22T06:38:49;18.60;46.40
28959;DHT22;16066;0.000;0.000;2022-12-22T06:41:15;18.70;46.40
28959;DHT22;16066;0.000;0.000;2022-12-22T06:44:00;18.70;46.40
28959;DHT22;16066;0.000;0.000;2022-12-22T06:46:26;18.70;46.10
28959;DHT22;16066;0.000;0.000;2022-12-22T06:48:51;18.80;46.00
28959;DHT22;16066;0.000;0.000;2022-12-22T06:51:17;18.80;46.20
28959;DHT22;16066;0.000;0.000;2022-12-22T06:53:42;18.80;46.00
28959;DHT22;16066;0.000;0.000;2022-12-22T06:56:08;18.90;46.00
28959;DHT22;16066;0.000;0.000;2022-12-22T06:58:33;18.90;45.90
28959;DHT22;16066;0.000;0.000;2022-12-22T07:00:59;18.90;45.90
28959;DHT22;16066;0.000;0.000;2022-12-22T07:03:24;19.00;45.90
28959;DHT22;16066;0.000;0.000;2022-12-22T07:05:50;19.00;45.90
28959;DHT22;16066;0.000;0.000;2022-12-22T07:08:15;19.10;45.80
28959;DHT22;16066;0.000;0.000;2022-12-22T07:10:41;19.10;46.10
28959;DHT22;16066;0.000;0.000;2022-12-22T07:13:27;19.20;46.00
28959;DHT22;16066;0.000;0.000;2022-12-22T07:15:53;19.30;46.00
28959;DHT22;16066;0.000;0.000;2022-12-22T07:18:19;19.30;46.00
28959;DHT22;16066;0.000;0.000;2022-12-22T07:20:45;19.40;45.90
28959;DHT22;16066;0.000;0.000;2022-12-22T07:23:11;19.40;45.80
28959;DHT22;16066;0.000;0.000;2022-12-22T07:25:36;19.50;45.80
28959;DHT22;16066;0.000;0.000;2022-12-22T07:28:02;19.50;45.60
28959;DHT22;16066;0.000;0.000;2022-12-22T07:30:28;19.50;45.50
28959;DHT22;16066;0.000;0.000;2022-12-22T07:32:54;19.60;45.70
28959;DHT22;16066;0.000;0.000;2022-12-22T07:35:19;19.70;45.70
28959;DHT22;16066;0.000;0.000;2022-12-22T07:37:47;19.70;45.50
28959;DHT22;16066;0.000;0.000;2022-12-22T07:40:13;19.80;45.50
28959;DHT22;16066;0.000;0.000;2022-12-22T07:42:39;19.80;45.40
28959;DHT22;16066;0.000;0.000;2022-12-22T07:45:15;19.80;45.30
28959;DHT22;16066;0.000;0.000;2022-12-22T07:47:41;19.90;45.30
28959;DHT22;16066;0.000;0.000;2022-12-22T07:50:11;19.90;45.20
28959;DHT22;16066;0.000;0.000;2022-12-22T07:53:02;19.90;45.20
28959;DHT22;16066;0.000;0.000;2022-12-22T07:55:30;20.00;45.20
28959;DHT22;16066;0.000;0.000;2022-12-22T07:57:56;20.00;45.20
28959;DHT22;16066;0.000;0.000;2022-12-22T08:00:23;20.00;45.40
28959;DHT22;16066;0.000;0.000;2022-12-22T08:02:53;20.00;45.80
28959;DHT22;16066;0.000;0.000;2022-12-22T08:05:20;20.10;45.60
28959;DHT22;16066;0.000;0.000;2022-12-22T08:07:48;20.10;45.90
28959;DHT22;16066;0.000;0.000;2022-12-22T08:10:14;20.10;45.90
28959;DHT22;16066;0.000;0.000;2022-12-22T08:12:40;20.10;45.50
28959;DHT22;16066;0.000;0.000;2022-12-22T08:15:07;20.20;45.50
28959;DHT22;16066;0.000;0.000;2022-12-22T08:17:33;20.20;45.40
28959;DHT22;16066;0.000;0.000;2022-12-22T08:19:59;20.30;45.50
28959;DHT22;16066;0.000;0.000;2022-12-22T08:22:25;20.30;45.40
28959;DHT22;16066;0.000;0.000;2022-12-22T08:24:53;20.30;45.40
28959;DHT22;16066;0.000;0.000;2022-12-22T08:27:32;20.30;45.40
28959;DHT22;16066;0.000;0.000;2022-12-22T08:30:04;20.30;45.40
28959;DHT22;16066;0.000;0.000;2022-12-22T08:32:31;20.40;45.50
28959;DHT22;16066;0.000;0.000;2022-12-22T08:34:57;20.40;45.70
28959;DHT22;16066;0.000;0.000;2022-12-22T08:37:25;20.40;45.70
28959;DHT22;16066;0.000;0.000;2022-12-22T08:39:56;20.40;45.70
28959;DHT22;16066;0.000;0.000;2022-12-22T08:42:23;20.40;45.80
28959;DHT22;16066;0.000;0.000;2022-12-22T08:44:49;20.30;45.70
28959;DHT22;16066;0.000;0.000;2022-12-22T08:47:18;20.30;45.60
28959;DHT22;16066;0.000;0.000;2022-12-22T08:49:43;20.30;45.50
28959;DHT22;16066;0.000;0.000;2022-12-22T08:52:09;20.30;45.40
28959;DHT22;16066;0.000;0.000;2022-12-22T08:54:34;20.30;45.50
28959;DHT22;16066;0.000;0.000;2022-12-22T08:57:00;20.30;45.80
28959;DHT22;16066;0.000;0.000;2022-12-22T08:59:25;20.30;45.90
28959;DHT22;16066;0.000;0.000;2022-12-22T09:01:51;20.30;46.00
28959;DHT22;16066;0.000;0.000;2022-12-22T09:04:18;20.30;46.00
28959;DHT22;16066;0.000;0.000;2022-12-22T09:06:44;20.30;45.90
28959;DHT22;16066;0.000;0.000;2022-12-22T09:09:11;20.30;45.90
28959;DHT22;16066;0.000;0.000;2022-12-22T09:11:38;20.30;46.00
28959;DHT22;16066;0.000;0.000;2022-12-22T09:14:04;20.30;46.40
28959;DHT22;16066;0.000;0.000;2022-12-22T09:16:31;20.30;46.10
28959;DHT22;16066;0.000;0.000;2022-12-22T09:18:58;20.30;46.00
28959;DHT22;16066;0.000;0.000;2022-12-22T09:21:24;20.30;46.10
28959;DHT22;16066;0.000;0.000;2022-12-22T09:23:50;20.30;46.70
28959;DHT22;16066;0.000;0.000;2022-12-22T09:26:18;20.30;46.10
28959;DHT22;16066;0.000;0.000;2022-12-22T09:28:44;20.30;46.00
28959;DHT22;16066;0.000;0.000;2022-12-22T09:31:10;20.30;46.00
28959;DHT22;16066;0.000;0.000;2022-12-22T09:33:36;20.30;46.00
28959;DHT22;16066;0.000;0.000;2022-12-22T09:36:06;20.30;46.90
28959;DHT22;16066;0.000;0.000;2022-12-22T09:38:32;20.30;46.20
28959;DHT22;16066;0.000;0.000;2022-12-22T09:40:58;20.30;46.20
28959;DHT22;16066;0.000;0.000;2022-12-22T09:43:28;20.30;46.10
28959;DHT22;16066;0.000;0.000;2022-12-22T09:45:55;20.30;46.00
28959;DHT22;16066;0.000;0.000;2022-12-22T09:48:23;20.30;46.10
28959;DHT22;16066;0.000;0.000;2022-12-22T09:50:51;20.30;46.10
28959;DHT22;16066;0.000;0.000;2022-12-22T09:53:21;20.30;46.10
28959;DHT22;16066;0.000;0.000;2022-12-22T09:55:49;20.30;46.10
28959;DHT22;16066;0.000;0.000;2022-12-22T09:58:19;20.30;46.00
28959;DHT22;16066;0.000;0.000;2022-12-22T10:06:31;20.30;46.00
28959;DHT22;16066;0.000;0.000;2022-12-22T10:09:02;20.30;46.00
28959;DHT22;16066;0.000;0.000;2022-12-22T10:11:35;20.30;46.00
28959;DHT22;16066;0.000;0.000;2022-12-22T10:14:01;20.30;45.90
28959;DHT22;16066;0.000;0.000;2022-12-22T10:16:27;20.40;46.00
28959;DHT22;16066;0.000;0.000;2022-12-22T10:18:56;20.40;45.90
28959;DHT22;16066;0.000;0.000;2022-12-22T10:21:23;20.40;46.00
28959;DHT22;16066;0.000;0.000;2022-12-22T10:23:49;20.40;45.90
28959;DHT22;16066;0.000;0.000;2022-12-22T10:26:26;20.40;45.80
28959;DHT22;16066;0.000;0.000;2022-12-22T10:29:03;20.40;45.80
28959;DHT22;16066;0.000;0.000;2022-12-22T10:31:35;20.30;45.80
28959;DHT22;16066;0.000;0.000;2022-12-22T10:34:16;20.30;45.90
28959;DHT22;16066;0.000;0.000;2022-12-22T10:36:47;20.30;45.80
28959;DHT22;16066;0.000;0.000;2022-12-22T10:39:20;20.30;45.80
28959;DHT22;16066;0.000;0.000;2022-12-22T10:41:48;20.30;45.70
28959;DHT22;16066;0.000;0.000;2022-12-22T10:44:20;20.20;45.70
28959;DHT22;16066;0.000;0.000;2022-12-22T10:47:09;20.20;45.70
28959;DHT22;16066;0.000;0.000;2022-12-22T10:49:37;20.20;45.70
28959;DHT22;16066;0.000;0.000;2022-12-22T10:52:16;20.20;45.60
28959;DHT22;16066;0.000;0.000;2022-12-22T10:54:44;20.10;45.60
28959;DHT22;16066;0.000;0.000;2022-12-22T10:59:57;20.10;45.50
28959;DHT22;16066;0.000;0.000;2022-12-22T11:04:49;20.10;45.50
28959;DHT22;16066;0.000;0.000;2022-12-22T11:07:15;20.10;45.50
28959;DHT22;16066;0.000;0.000;2022-12-22T11:09:41;20.10;45.50
28959;DHT22;16066;0.000;0.000;2022-12-22T11:17:48;20.10;45.40
28959;DHT22;16066;0.000;0.000;2022-12-22T11:23:06;20.10;45.40
28959;DHT22;16066;0.000;0.000;2022-12-22T11:25:43;20.10;45.30
28959;DHT22;16066;0.000;0.000;2022-12-22T11:28:38;20.10;45.30
28959;DHT22;16066;0.000;0.000;2022-12-22T11:31:11;20.10;45.30
28959;DHT22;16066;0.000;0.000;2022-12-22T11:37:01;20.10;45.30
28959;DHT22;16066;0.000;0.000;2022-12-22T11:45:01;20.20;45.40
28959;DHT22;16066;0.000;0.000;2022-12-22T11:47:53;20.20;45.40
28959;DHT22;16066;0.000;0.000;2022-12-22T11:50:45;20.30;45.50
28959;DHT22;16066;0.000;0.000;2022-12-22T11:56:32;20.30;45.50
28959;DHT22;16066;0.000;0.000;2022-12-22T12:02:06;20.30;45.50
28959;DHT22;16066;0.000;0.000;2022-12-22T12:15:31;20.30;45.70
28959;DHT22;16066;0.000;0.000;2022-12-22T12:23:48;20.30;45.60
28959;DHT22;16066;0.000;0.000;2022-12-22T12:31:33;20.20;46.10
28959;DHT22;16066;0.000;0.000;2022-12-22T12:34:00;20.20;45.80
28959;DHT22;16066;0.000;0.000;2022-12-22T12:37:06;20.20;45.70
28959;DHT22;16066;0.000;0.000;2022-12-22T12:42:30;20.20;45.60
28959;DHT22;16066;0.000;0.000;2022-12-22T12:44:57;20.30;45.60
28959;DHT22;16066;0.000;0.000;2022-12-22T12:47:34;20.30;45.70
28959;DHT22;16066;0.000;0.000;2022-12-22T12:55:24;20.30;45.60
28959;DHT22;16066;0.000;0.000;2022-12-22T12:57:50;20.30;45.60
28959;DHT22;16066;0.000;0.000;2022-12-22T13:05:33;20.40;45.60
28959;DHT22;16066;0.000;0.000;2022-12-22T13:08:23;20.40;45.60
28959;DHT22;16066;0.000;0.000;2022-12-22T13:16:19;20.30;45.70
28959;DHT22;16066;0.000;0.000;2022-12-22T13:18:43;20.30;45.70
28959;DHT22;16066;0.000;0.000;2022-12-22T13:21:21;20.30;45.50
28959;DHT22;16066;0.000;0.000;2022-12-22T13:26:36;20.30;45.60
28959;DHT22;16066;0.000;0.000;2022-12-22T13:31:49;20.30;45.70
28959;DHT22;16066;0.000;0.000;2022-12-22T13:37:13;20.30;45.70
28959;DHT22;16066;0.000;0.000;2022-12-22T13:39:40;20.30;45.70
28959;DHT22;16066;0.000;0.000;2022-12-22T13:42:06;20.30;45.50
28959;DHT22;16066;0.000;0.000;2022-12-22T13:44:33;20.30;45.60
28959;DHT22;16066;0.000;0.000;2022-12-22T13:47:09;20.30;45.60
28959;DHT22;16066;0.000;0.000;2022-12-22T13:49:36;20.30;45.60
28959;DHT22;16066;0.000;0.000;2022-12-22T13:52:02;20.30;45.50
28959;DHT22;16066;0.000;0.000;2022-12-22T13:54:46;20.30;45.80
28959;DHT22;16066;0.000;0.000;2022-12-22T13:57:18;20.30;45.70
28959;DHT22;16066;0.000;0.000;2022-12-22T13:59:46;20.30;45.80
28959;DHT22;16066;0.000;0.000;2022-12-22T14:02:14;20.40;45.90
28959;DHT22;16066;0.000;0.000;2022-12-22T14:04:42;20.40;46.00
28959;DHT22;16066;0.000;0.000;2022-12-22T14:07:15;20.40;46.00
28959;DHT22;16066;0.000;0.000;2022-12-22T14:09:46;20.50;45.90
28959;DHT22;16066;0.000;0.000;2022-12-22T14:12:23;20.50;45.80
28959;DHT22;16066;0.000;0.000;2022-12-22T14:14:50;20.50;45.70
28959;DHT22;16066;0.000;0.000;2022-12-22T14:17:40;20.50;45.60
28959;DHT22;16066;0.000;0.000;2022-12-22T14:23:04;20.60;45.70
28959;DHT22;16066;0.000;0.000;2022-12-22T14:25:36;20.60;45.70
28959;DHT22;16066;0.000;0.000;2022-12-22T14:28:05;20.60;45.60
28959;DHT22;16066;0.000;0.000;2022-12-22T14:30:35;20.60;45.50
28959;DHT22;16066;0.000;0.000;2022-12-22T14:36:14;20.60;45.30
28959;DHT22;16066;0.000;0.000;2022-12-22T14:38:43;20.50;45.30
28959;DHT22;16066;0.000;0.000;2022-12-22T14:41:18;20.50;45.20
28959;DHT22;16066;0.000;0.000;2022-12-22T14:44:06;20.50;45.10
28959;DHT22;16066;0.000;0.000;2022-12-22T14:46:36;20.50;45.20
28959;DHT22;16066;0.000;0.000;2022-12-22T14:49:01;20.50;45.20
28959;DHT22;16066;0.000;0.000;2022-12-22T14:51:27;20.50;45.20
28959;DHT22;16066;0.000;0.000;2022-12-22T14:53:55;20.50;45.30
28959;DHT22;16066;0.000;0.000;2022-12-22T14:56:21;20.50;45.50
28959;DHT22;16066;0.000;0.000;2022-12-22T14:58:48;20.50;45.40
28959;DHT22;16066;0.000;0.000;2022-12-22T15:01:16;20.50;45.40
28959;DHT22;16066;0.000;0.000;2022-12-22T15:03:43;20.50;45.40
28959;DHT22;16066;0.000;0.000;2022-12-22T15:09:05;20.50;45.30
28959;DHT22;16066;0.000;0.000;2022-12-22T15:11:31;20.60;45.30
28959;DHT22;16066;0.000;0.000;2022-12-22T15:13:57;20.60;45.30
28959;DHT22;16066;0.000;0.000;2022-12-22T15:16:23;20.60;45.30
28959;DHT22;16066;0.000;0.000;2022-12-22T15:18:49;20.60;45.20
28959;DHT22;16066;0.000;0.000;2022-12-22T15:21:17;20.60;45.50
28959;DHT22;16066;0.000;0.000;2022-12-22T15:23:43;20.60;45.40
28959;DHT22;16066;0.000;0.000;2022-12-22T15:26:10;20.60;45.30
28959;DHT22;16066;0.000;0.000;2022-12-22T15:28:35;20.50;45.30
28959;DHT22;16066;0.000;0.000;2022-12-22T15:31:02;20.60;45.40
28959;DHT22;16066;0.000;0.000;2022-12-22T15:33:29;20.50;45.20
28959;DHT22;16066;0.000;0.000;2022-12-22T15:35:54;20.50;45.30
28959;DHT22;16066;0.000;0.000;2022-12-22T15:38:21;20.50;45.20
28959;DHT22;16066;0.000;0.000;2022-12-22T15:40:48;20.50;45.20
28959;DHT22;16066;0.000;0.000;2022-12-22T15:43:14;20.50;45.80
28959;DHT22;16066;0.000;0.000;2022-12-22T15:45:40;20.50;45.20
28959;DHT22;16066;0.000;0.000;2022-12-22T15:48:09;20.50;45.10
28959;DHT22;16066;0.000;0.000;2022-12-22T15:50:39;20.50;45.10
28959;DHT22;16066;0.000;0.000;2022-12-22T15:53:06;20.50;45.10
28959;DHT22;16066;0.000;0.000;2022-12-22T15:55:38;20.50;45.00
28959;DHT22;16066;0.000;0.000;2022-12-22T15:58:05;20.50;45.00
28959;DHT22;16066;0.000;0.000;2022-12-22T16:00:30;20.50;45.00
28959;DHT22;16066;0.000;0.000;2022-12-22T16:02:56;20.50;45.00
28959;DHT22;16066;0.000;0.000;2022-12-22T16:05:21;20.50;45.00
28959;DHT22;16066;0.000;0.000;2022-12-22T16:07:47;20.50;45.00
28959;DHT22;16066;0.000;0.000;2022-12-22T16:10:24;20.60;45.20
28959;DHT22;16066;0.000;0.000;2022-12-22T16:12:51;20.50;45.10
28959;DHT22;16066;0.000;0.000;2022-12-22T16:15:25;20.50;45.10
28959;DHT22;16066;0.000;0.000;2022-12-22T16:17:51;20.50;45.10
28959;DHT22;16066;0.000;0.000;2022-12-22T16:20:17;20.50;45.10
28959;DHT22;16066;0.000;0.000;2022-12-22T16:22:43;20.50;45.10
28959;DHT22;16066;0.000;0.000;2022-12-22T16:25:14;20.50;45.20
28959;DHT22;16066;0.000;0.000;2022-12-22T16:27:41;20.50;45.30
28959;DHT22;16066;0.000;0.000;2022-12-22T16:30:13;20.50;45.30
28959;DHT22;16066;0.000;0.000;2022-12-22T16:32:40;20.50;45.30
28959;DHT22;16066;0.000;0.000;2022-12-22T16:37:34;20.50;45.40
28959;DHT22;16066;0.000;0.000;2022-12-22T16:40:00;20.50;45.30
28959;DHT22;16066;0.000;0.000;2022-12-22T16:42:26;20.50;45.90
28959;DHT22;16066;0.000;0.000;2022-12-22T16:44:52;20.50;45.90
28959;DHT22;16066;0.000;0.000;2022-12-22T16:47:21;20.50;45.30
28959;DHT22;16066;0.000;0.000;2022-12-22T16:49:47;20.50;45.30
28959;DHT22;16066;0.000;0.000;2022-12-22T16:52:35;20.50;45.30
28959;DHT22;16066;0.000;0.000;2022-12-22T16:55:01;20.50;45.20
28959;DHT22;16066;0.000;0.000;2022-12-22T16:57:26;20.50;45.20
28959;DHT22;16066;0.000;0.000;2022-12-22T16:59:52;20.50;45.10
28959;DHT22;16066;0.000;0.000;2022-12-22T17:02:25;20.50;45.10
28959;DHT22;16066;0.000;0.000;2022-12-22T17:04:52;20.50;45.10
28959;DHT22;16066;0.000;0.000;2022-12-22T17:07:19;20.50;45.10
28959;DHT22;16066;0.000;0.000;2022-12-22T17:09:55;20.60;45.10
28959;DHT22;16066;0.000;0.000;2022-12-22T17:12:24;20.60;45.10
28959;DHT22;16066;0.000;0.000;2022-12-22T17:14:51;20.60;45.00
28959;DHT22;16066;0.000;0.000;2022-12-22T17:17:19;20.70;45.00
28959;DHT22;16066;0.000;0.000;2022-12-22T17:19:49;20.70;45.00
28959;DHT22;16066;0.000;0.000;2022-12-22T17:24:52;20.80;45.00
28959;DHT22;16066;0.000;0.000;2022-12-22T17:27:24;20.80;45.00
28959;DHT22;16066;0.000;0.000;2022-12-22T17:29:52;20.70;45.00
28959;DHT22;16066;0.000;0.000;2022-12-22T17:32:19;20.70;45.10
28959;DHT22;16066;0.000;0.000;2022-12-22T17:34:45;20.70;45.00
28959;DHT22;16066;0.000;0.000;2022-12-22T17:37:17;20.70;45.00
28959;DHT22;16066;0.000;0.000;2022-12-22T17:39:44;20.70;45.10
28959;DHT22;16066;0.000;0.000;2022-12-22T17:42:18;20.80;45.10
28959;DHT22;16066;0.000;0.000;2022-12-22T17:44:44;20.80;45.10
28959;DHT22;16066;0.000;0.000;2022-12-22T17:47:14;20.80;45.10
28959;DHT22;16066;0.000;0.000;2022-12-22T17:49:41;20.80;45.00
28959;DHT22;16066;0.000;0.000;2022-12-22T17:52:18;20.80;45.10
28959;DHT22;16066;0.000;0.000;2022-12-22T17:54:49;20.80;45.20
28959;DHT22;16066;0.000;0.000;2022-12-22T17:57:20;20.80;45.10
28959;DHT22;16066;0.000;0.000;2022-12-22T17:59:47;20.70;44.90